sensor_id;sensor_type;location;lat;lon;timestamp;P1;durP1;ratioP1;P2;durP2;ratioP2
57463;SDS011;43309;44.418;26.122;2023-09-07T00:02:18;9.70;;;5.40;;
57463;SDS011;43309;44.418;26.122;2023-09-07T00:04:45;7.90;;;5.30;;
57463;SDS011;43309;44.418;26.122;2023-09-07T00:07:12;7.50;;;5.10;;
57463;SDS011;43309;44.418;26.122;2023-09-07T00:09:39;6.40;;;4.90;;
57463;SDS011;43309;44.418;26.122;2023-09-07T00:12:07;6.70;;;5.00;;
57463;SDS011;43309;44.418;26.122;2023-09-07T00:14:34;9.00;;;5.00;;
57463;SDS011;43309;44.418;26.122;2023-09-07T00:17:01;7.60;;;4.80;;
57463;SDS011;43309;44.418;26.122;2023-09-07T00:19:29;6.40;;;5.20;;
57463;SDS011;43309;44.418;26.122;2023-09-07T00:21:58;8.30;;;4.70;;
57463;SDS011;43309;44.418;26.122;2023-09-07T00:24:26;7.20;;;4.50;;
57463;SDS011;43309;44.418;26.122;2023-09-07T00:26:53;6.40;;;4.80;;
57463;SDS011;43309;44.418;26.122;2023-09-07T00:29:20;5.10;;;4.40;;
57463;SDS011;43309;44.418;26.122;2023-09-07T00:31:47;7.00;;;5.00;;
57463;SDS011;43309;44.418;26.122;2023-09-07T00:34:14;6.80;;;4.80;;
57463;SDS011;43309;44.418;26.122;2023-09-07T00:36:41;5.70;;;4.70;;
57463;SDS011;43309;44.418;26.122;2023-09-07T00:39:09;5.70;;;4.70;;
57463;SDS011;43309;44.418;26.122;2023-09-07T00:41:37;5.90;;;4.70;;
57463;SDS011;43309;44.418;26.122;2023-09-07T00:44:04;6.30;;;4.60;;
57463;SDS011;43309;44.418;26.122;2023-09-07T00:46:31;6.10;;;4.50;;
57463;SDS011;43309;44.418;26.122;2023-09-07T00:48:58;8.70;;;4.40;;
57463;SDS011;43309;44.418;26.122;2023-09-07T00:51:26;5.70;;;4.40;;
57463;SDS011;43309;44.418;26.122;2023-09-07T00:53:53;6.90;;;4.70;;
57463;SDS011;43309;44.418;26.122;2023-09-07T00:56:20;5.80;;;4.80;;
57463;SDS011;43309;44.418;26.122;2023-09-07T00:58:47;6.70;;;4.70;;
57463;SDS011;43309;44.418;26.122;2023-09-07T01:01:15;5.80;;;4.80;;
57463;SDS011;43309;44.418;26.122;2023-09-07T01:03:42;6.70;;;4.70;;
57463;SDS011;43309;44.418;26.122;2023-09-07T01:06:13;6.00;;;4.50;;
57463;SDS011;43309;44.418;26.122;2023-09-07T01:08:44;5.90;;;4.50;;
57463;SDS011;43309;44.418;26.122;2023-09-07T01:11:14;7.20;;;4.80;;
57463;SDS011;43309;44.418;26.122;2023-09-07T01:13:42;6.00;;;4.60;;
57463;SDS011;43309;44.418;26.122;2023-09-07T01:16:09;5.20;;;4.20;;
57463;SDS011;43309;44.418;26.122;2023-09-07T01:18:37;6.00;;;4.60;;
57463;SDS011;43309;44.418;26.122;2023-09-07T01:21:08;7.10;;;4.70;;
57463;SDS011;43309;44.418;26.122;2023-09-07T01:23:37;6.20;;;4.50;;
57463;SDS011;43309;44.418;26.122;2023-09-07T01:26:07;6.80;;;5.00;;
57463;SDS011;43309;44.418;26.122;2023-09-07T01:28:36;6.90;;;4.40;;
57463;SDS011;43309;44.418;26.122;2023-09-07T01:31:06;7.00;;;4.60;;
57463;SDS011;43309;44.418;26.122;2023-09-07T01:33:33;5.00;;;4.30;;
57463;SDS011;43309;44.418;26.122;2023-09-07T01:36:01;5.20;;;4.40;;
57463;SDS011;43309;44.418;26.122;2023-09-07T01:38:29;6.10;;;4.60;;
57463;SDS011;43309;44.418;26.122;2023-09-07T01:40:56;4.80;;;4.20;;
57463;SDS011;43309;44.418;26.122;2023-09-07T01:43:23;5.10;;;4.30;;
57463;SDS011;43309;44.418;26.122;2023-09-07T01:45:51;5.40;;;4.50;;
57463;SDS011;43309;44.418;26.122;2023-09-07T01:48:18;5.50;;;4.00;;
57463;SDS011;43309;44.418;26.122;2023-09-07T01:50:45;5.90;;;3.90;;
57463;SDS011;43309;44.418;26.122;2023-09-07T01:53:12;5.40;;;4.50;;
57463;SDS011;43309;44.418;26.122;2023-09-07T01:55:39;6.10;;;4.30;;
57463;SDS011;43309;44.418;26.122;2023-09-07T01:58:06;6.00;;;5.00;;
57463;SDS011;43309;44.418;26.122;2023-09-07T02:00:37;7.50;;;4.60;;
57463;SDS011;43309;44.418;26.122;2023-09-07T02:03:05;5.50;;;4.30;;
57463;SDS011;43309;44.418;26.122;2023-09-07T02:05:33;8.60;;;4.60;;
57463;SDS011;43309;44.418;26.122;2023-09-07T02:08:00;9.00;;;5.00;;
57463;SDS011;43309;44.418;26.122;2023-09-07T02:10:27;5.60;;;4.50;;
57463;SDS011;43309;44.418;26.122;2023-09-07T02:12:54;6.10;;;4.70;;
57463;SDS011;43309;44.418;26.122;2023-09-07T02:15:23;4.80;;;4.20;;
57463;SDS011;43309;44.418;26.122;2023-09-07T02:17:50;5.90;;;4.90;;
57463;SDS011;43309;44.418;26.122;2023-09-07T02:20:19;5.90;;;4.70;;
57463;SDS011;43309;44.418;26.122;2023-09-07T02:22:47;6.00;;;4.30;;
57463;SDS011;43309;44.418;26.122;2023-09-07T02:25:14;5.80;;;4.40;;
57463;SDS011;43309;44.418;26.122;2023-09-07T02:27:41;5.60;;;4.40;;
57463;SDS011;43309;44.418;26.122;2023-09-07T02:30:09;4.90;;;4.40;;
57463;SDS011;43309;44.418;26.122;2023-09-07T02:32:36;5.40;;;4.00;;
57463;SDS011;43309;44.418;26.122;2023-09-07T02:35:03;5.60;;;4.40;;
57463;SDS011;43309;44.418;26.122;2023-09-07T02:37:31;5.10;;;4.30;;
57463;SDS011;43309;44.418;26.122;2023-09-07T02:39:58;6.30;;;4.30;;
57463;SDS011;43309;44.418;26.122;2023-09-07T02:42:25;5.10;;;4.40;;
57463;SDS011;43309;44.418;26.122;2023-09-07T02:44:53;5.20;;;4.30;;
57463;SDS011;43309;44.418;26.122;2023-09-07T02:47:20;4.60;;;4.10;;
57463;SDS011;43309;44.418;26.122;2023-09-07T02:49:48;4.80;;;4.20;;
57463;SDS011;43309;44.418;26.122;2023-09-07T02:52:15;5.50;;;4.30;;
57463;SDS011;43309;44.418;26.122;2023-09-07T02:54:42;5.20;;;4.40;;
57463;SDS011;43309;44.418;26.122;2023-09-07T02:57:09;6.90;;;4.30;;
57463;SDS011;43309;44.418;26.122;2023-09-07T02:59:36;5.30;;;4.50;;
57463;SDS011;43309;44.418;26.122;2023-09-07T03:02:04;5.60;;;4.30;;
57463;SDS011;43309;44.418;26.122;2023-09-07T03:04:31;7.40;;;4.60;;
57463;SDS011;43309;44.418;26.122;2023-09-07T03:07:00;5.10;;;4.20;;
57463;SDS011;43309;44.418;26.122;2023-09-07T03:09:28;6.30;;;4.40;;
57463;SDS011;43309;44.418;26.122;2023-09-07T03:11:55;5.70;;;4.20;;
57463;SDS011;43309;44.418;26.122;2023-09-07T03:14:22;5.30;;;4.50;;
57463;SDS011;43309;44.418;26.122;2023-09-07T03:16:49;5.10;;;4.00;;
57463;SDS011;43309;44.418;26.122;2023-09-07T03:19:17;5.00;;;4.50;;
57463;SDS011;43309;44.418;26.122;2023-09-07T03:21:44;7.10;;;4.60;;
57463;SDS011;43309;44.418;26.122;2023-09-07T03:24:11;7.20;;;4.90;;
57463;SDS011;43309;44.418;26.122;2023-09-07T03:26:38;6.10;;;4.60;;
57463;SDS011;43309;44.418;26.122;2023-09-07T03:29:06;5.50;;;4.30;;
57463;SDS011;43309;44.418;26.122;2023-09-07T03:31:34;5.10;;;4.60;;
57463;SDS011;43309;44.418;26.122;2023-09-07T03:34:01;5.70;;;4.20;;
57463;SDS011;43309;44.418;26.122;2023-09-07T03:36:28;6.10;;;4.50;;
57463;SDS011;43309;44.418;26.122;2023-09-07T03:38:55;4.70;;;4.10;;
57463;SDS011;43309;44.418;26.122;2023-09-07T03:41:22;7.00;;;4.80;;
57463;SDS011;43309;44.418;26.122;2023-09-07T03:43:49;5.40;;;4.20;;
57463;SDS011;43309;44.418;26.122;2023-09-07T03:46:17;5.30;;;4.20;;
57463;SDS011;43309;44.418;26.122;2023-09-07T03:48:44;6.30;;;4.70;;
57463;SDS011;43309;44.418;26.122;2023-09-07T03:51:11;6.40;;;4.60;;
57463;SDS011;43309;44.418;26.122;2023-09-07T03:53:38;6.40;;;4.60;;
57463;SDS011;43309;44.418;26.122;2023-09-07T03:56:06;5.50;;;4.20;;
57463;SDS011;43309;44.418;26.122;2023-09-07T03:58:33;5.40;;;4.30;;
57463;SDS011;43309;44.418;26.122;2023-09-07T04:01:00;4.50;;;4.10;;
57463;SDS011;43309;44.418;26.122;2023-09-07T04:03:27;8.30;;;4.80;;
57463;SDS011;43309;44.418;26.122;2023-09-07T04:05:54;6.10;;;4.50;;
57463;SDS011;43309;44.418;26.122;2023-09-07T04:08:22;5.00;;;4.20;;
57463;SDS011;43309;44.418;26.122;2023-09-07T04:10:50;5.40;;;4.40;;
57463;SDS011;43309;44.418;26.122;2023-09-07T04:13:17;5.40;;;4.00;;
57463;SDS011;43309;44.418;26.122;2023-09-07T04:15:44;5.80;;;4.60;;
57463;SDS011;43309;44.418;26.122;2023-09-07T04:18:12;6.50;;;4.90;;
57463;SDS011;43309;44.418;26.122;2023-09-07T04:20:42;5.00;;;4.50;;
57463;SDS011;43309;44.418;26.122;2023-09-07T04:23:10;4.90;;;4.00;;
57463;SDS011;43309;44.418;26.122;2023-09-07T04:25:37;5.70;;;4.70;;
57463;SDS011;43309;44.418;26.122;2023-09-07T04:28:05;6.30;;;4.50;;
57463;SDS011;43309;44.418;26.122;2023-09-07T04:30:39;4.90;;;4.40;;
57463;SDS011;43309;44.418;26.122;2023-09-07T04:33:08;5.10;;;4.40;;
57463;SDS011;43309;44.418;26.122;2023-09-07T04:35:35;9.40;;;4.60;;
57463;SDS011;43309;44.418;26.122;2023-09-07T04:38:03;8.10;;;4.70;;
57463;SDS011;43309;44.418;26.122;2023-09-07T04:40:30;7.80;;;4.80;;
57463;SDS011;43309;44.418;26.122;2023-09-07T04:42:57;6.60;;;4.50;;
57463;SDS011;43309;44.418;26.122;2023-09-07T04:45:24;7.60;;;5.10;;
57463;SDS011;43309;44.418;26.122;2023-09-07T04:47:51;8.00;;;5.00;;
57463;SDS011;43309;44.418;26.122;2023-09-07T04:50:19;5.20;;;4.50;;
57463;SDS011;43309;44.418;26.122;2023-09-07T04:52:46;9.20;;;4.70;;
57463;SDS011;43309;44.418;26.122;2023-09-07T04:55:13;6.10;;;4.80;;
57463;SDS011;43309;44.418;26.122;2023-09-07T04:57:40;5.40;;;4.60;;
57463;SDS011;43309;44.418;26.122;2023-09-07T05:00:08;6.20;;;4.50;;
57463;SDS011;43309;44.418;26.122;2023-09-07T05:02:38;6.20;;;4.10;;
57463;SDS011;43309;44.418;26.122;2023-09-07T05:05:08;6.40;;;4.50;;
57463;SDS011;43309;44.418;26.122;2023-09-07T05:07:36;5.50;;;4.80;;
57463;SDS011;43309;44.418;26.122;2023-09-07T05:10:03;8.10;;;4.80;;
57463;SDS011;43309;44.418;26.122;2023-09-07T05:12:31;6.40;;;4.40;;
57463;SDS011;43309;44.418;26.122;2023-09-07T05:14:58;8.00;;;5.00;;
57463;SDS011;43309;44.418;26.122;2023-09-07T05:17:26;6.40;;;4.90;;
57463;SDS011;43309;44.418;26.122;2023-09-07T05:19:54;5.90;;;4.30;;
57463;SDS011;43309;44.418;26.122;2023-09-07T05:22:21;6.10;;;4.80;;
57463;SDS011;43309;44.418;26.122;2023-09-07T05:24:49;7.40;;;4.80;;
57463;SDS011;43309;44.418;26.122;2023-09-07T05:27:16;8.40;;;5.00;;
57463;SDS011;43309;44.418;26.122;2023-09-07T05:29:44;6.30;;;4.90;;
57463;SDS011;43309;44.418;26.122;2023-09-07T05:32:11;6.50;;;5.00;;
57463;SDS011;43309;44.418;26.122;2023-09-07T05:34:39;7.10;;;4.80;;
57463;SDS011;43309;44.418;26.122;2023-09-07T05:37:06;8.40;;;5.10;;
57463;SDS011;43309;44.418;26.122;2023-09-07T05:39:34;6.10;;;4.50;;
57463;SDS011;43309;44.418;26.122;2023-09-07T05:42:01;4.80;;;4.10;;
57463;SDS011;43309;44.418;26.122;2023-09-07T05:44:28;7.80;;;4.70;;
57463;SDS011;43309;44.418;26.122;2023-09-07T05:46:55;7.20;;;5.00;;
57463;SDS011;43309;44.418;26.122;2023-09-07T05:49:25;5.30;;;4.50;;
57463;SDS011;43309;44.418;26.122;2023-09-07T05:51:52;5.90;;;4.90;;
57463;SDS011;43309;44.418;26.122;2023-09-07T05:54:19;45.80;;;6.20;;
57463;SDS011;43309;44.418;26.122;2023-09-07T05:56:47;19.80;;;4.80;;
57463;SDS011;43309;44.418;26.122;2023-09-07T05:59:14;41.70;;;5.20;;
57463;SDS011;43309;44.418;26.122;2023-09-07T06:01:41;33.80;;;6.90;;
57463;SDS011;43309;44.418;26.122;2023-09-07T06:04:08;34.40;;;5.60;;
57463;SDS011;43309;44.418;26.122;2023-09-07T06:06:36;27.60;;;5.20;;
57463;SDS011;43309;44.418;26.122;2023-09-07T06:09:03;15.50;;;6.10;;
57463;SDS011;43309;44.418;26.122;2023-09-07T06:11:30;24.70;;;7.50;;
57463;SDS011;43309;44.418;26.122;2023-09-07T06:13:58;26.60;;;12.00;;
57463;SDS011;43309;44.418;26.122;2023-09-07T06:16:25;31.20;;;13.20;;
57463;SDS011;43309;44.418;26.122;2023-09-07T06:18:53;27.00;;;13.10;;
57463;SDS011;43309;44.418;26.122;2023-09-07T06:21:20;26.30;;;14.20;;
57463;SDS011;43309;44.418;26.122;2023-09-07T06:23:47;57.20;;;15.40;;
57463;SDS011;43309;44.418;26.122;2023-09-07T06:26:14;216.90;;;21.00;;
57463;SDS011;43309;44.418;26.122;2023-09-07T06:28:44;173.00;;;19.60;;
57463;SDS011;43309;44.418;26.122;2023-09-07T06:31:11;132.60;;;13.80;;
57463;SDS011;43309;44.418;26.122;2023-09-07T06:33:38;111.10;;;12.80;;
57463;SDS011;43309;44.418;26.122;2023-09-07T06:36:06;97.90;;;12.10;;
57463;SDS011;43309;44.418;26.122;2023-09-07T06:38:33;107.20;;;12.90;;
57463;SDS011;43309;44.418;26.122;2023-09-07T06:41:00;72.00;;;10.30;;
57463;SDS011;43309;44.418;26.122;2023-09-07T06:43:27;71.00;;;13.30;;
57463;SDS011;43309;44.418;26.122;2023-09-07T06:45:55;87.20;;;14.00;;
57463;SDS011;43309;44.418;26.122;2023-09-07T06:48:23;1999.90;;;153.60;;
57463;SDS011;43309;44.418;26.122;2023-09-07T06:50:50;1184.70;;;75.70;;
57463;SDS011;43309;44.418;26.122;2023-09-07T06:53:17;368.00;;;25.40;;
57463;SDS011;43309;44.418;26.122;2023-09-07T06:55:45;199.10;;;19.90;;
57463;SDS011;43309;44.418;26.122;2023-09-07T06:58:12;148.60;;;21.50;;
57463;SDS011;43309;44.418;26.122;2023-09-07T07:00:39;136.50;;;25.40;;
57463;SDS011;43309;44.418;26.122;2023-09-07T07:03:07;425.60;;;36.10;;
57463;SDS011;43309;44.418;26.122;2023-09-07T07:05:34;428.20;;;46.50;;
57463;SDS011;43309;44.418;26.122;2023-09-07T07:08:01;452.90;;;43.80;;
57463;SDS011;43309;44.418;26.122;2023-09-07T07:10:29;411.10;;;32.60;;
57463;SDS011;43309;44.418;26.122;2023-09-07T07:12:56;498.40;;;37.10;;
57463;SDS011;43309;44.418;26.122;2023-09-07T07:15:23;299.40;;;23.20;;
57463;SDS011;43309;44.418;26.122;2023-09-07T07:17:51;491.70;;;34.80;;
57463;SDS011;43309;44.418;26.122;2023-09-07T07:20:18;349.30;;;26.80;;
57463;SDS011;43309;44.418;26.122;2023-09-07T07:22:45;366.50;;;27.20;;
57463;SDS011;43309;44.418;26.122;2023-09-07T07:25:12;481.50;;;36.80;;
57463;SDS011;43309;44.418;26.122;2023-09-07T07:27:39;476.60;;;33.70;;
57463;SDS011;43309;44.418;26.122;2023-09-07T07:30:06;532.20;;;37.70;;
57463;SDS011;43309;44.418;26.122;2023-09-07T07:32:34;572.70;;;43.10;;
57463;SDS011;43309;44.418;26.122;2023-09-07T07:35:01;559.00;;;37.80;;
57463;SDS011;43309;44.418;26.122;2023-09-07T07:37:29;489.50;;;37.90;;
57463;SDS011;43309;44.418;26.122;2023-09-07T07:39:56;403.60;;;34.00;;
57463;SDS011;43309;44.418;26.122;2023-09-07T07:42:23;426.60;;;36.10;;
57463;SDS011;43309;44.418;26.122;2023-09-07T07:44:50;478.60;;;38.60;;
57463;SDS011;43309;44.418;26.122;2023-09-07T07:47:18;420.80;;;36.40;;
57463;SDS011;43309;44.418;26.122;2023-09-07T07:49:45;436.60;;;38.10;;
57463;SDS011;43309;44.418;26.122;2023-09-07T07:52:12;294.70;;;41.70;;
57463;SDS011;43309;44.418;26.122;2023-09-07T07:54:39;309.10;;;39.40;;
57463;SDS011;43309;44.418;26.122;2023-09-07T07:57:06;345.20;;;36.80;;
57463;SDS011;43309;44.418;26.122;2023-09-07T07:59:34;315.60;;;34.80;;
57463;SDS011;43309;44.418;26.122;2023-09-07T08:02:01;275.10;;;33.20;;
57463;SDS011;43309;44.418;26.122;2023-09-07T08:04:28;253.20;;;31.90;;
57463;SDS011;43309;44.418;26.122;2023-09-07T08:06:55;266.60;;;32.40;;
57463;SDS011;43309;44.418;26.122;2023-09-07T08:09:26;169.50;;;26.10;;
57463;SDS011;43309;44.418;26.122;2023-09-07T08:11:54;179.30;;;23.00;;
57463;SDS011;43309;44.418;26.122;2023-09-07T08:14:23;314.10;;;82.30;;
57463;SDS011;43309;44.418;26.122;2023-09-07T08:16:52;276.10;;;61.80;;
57463;SDS011;43309;44.418;26.122;2023-09-07T08:19:19;247.70;;;49.00;;
57463;SDS011;43309;44.418;26.122;2023-09-07T08:21:47;255.50;;;46.80;;
57463;SDS011;43309;44.418;26.122;2023-09-07T08:24:14;248.80;;;44.50;;
57463;SDS011;43309;44.418;26.122;2023-09-07T08:26:41;162.50;;;30.50;;
57463;SDS011;43309;44.418;26.122;2023-09-07T08:29:08;175.30;;;29.80;;
57463;SDS011;43309;44.418;26.122;2023-09-07T08:31:38;191.40;;;32.30;;
57463;SDS011;43309;44.418;26.122;2023-09-07T08:34:06;155.20;;;27.90;;
57463;SDS011;43309;44.418;26.122;2023-09-07T08:36:36;110.40;;;19.40;;
57463;SDS011;43309;44.418;26.122;2023-09-07T08:39:03;158.60;;;28.60;;
57463;SDS011;43309;44.418;26.122;2023-09-07T08:41:37;153.20;;;25.00;;
57463;SDS011;43309;44.418;26.122;2023-09-07T08:44:11;198.60;;;30.00;;
57463;SDS011;43309;44.418;26.122;2023-09-07T08:46:40;211.70;;;30.50;;
57463;SDS011;43309;44.418;26.122;2023-09-07T08:49:07;231.40;;;30.70;;
57463;SDS011;43309;44.418;26.122;2023-09-07T08:51:36;226.50;;;30.30;;
57463;SDS011;43309;44.418;26.122;2023-09-07T08:54:05;221.70;;;27.70;;
57463;SDS011;43309;44.418;26.122;2023-09-07T08:56:33;230.30;;;28.10;;
57463;SDS011;43309;44.418;26.122;2023-09-07T08:59:00;237.60;;;25.90;;
57463;SDS011;43309;44.418;26.122;2023-09-07T09:01:27;241.40;;;25.10;;
57463;SDS011;43309;44.418;26.122;2023-09-07T09:03:58;222.00;;;22.90;;
57463;SDS011;43309;44.418;26.122;2023-09-07T09:06:26;209.40;;;21.70;;
57463;SDS011;43309;44.418;26.122;2023-09-07T09:08:53;216.40;;;22.90;;
57463;SDS011;43309;44.418;26.122;2023-09-07T09:11:23;211.80;;;21.30;;
57463;SDS011;43309;44.418;26.122;2023-09-07T09:13:52;283.20;;;23.90;;
57463;SDS011;43309;44.418;26.122;2023-09-07T09:16:20;290.10;;;26.30;;
57463;SDS011;43309;44.418;26.122;2023-09-07T09:18:51;371.10;;;31.80;;
57463;SDS011;43309;44.418;26.122;2023-09-07T09:21:22;520.60;;;41.80;;
57463;SDS011;43309;44.418;26.122;2023-09-07T09:23:52;441.90;;;34.10;;
57463;SDS011;43309;44.418;26.122;2023-09-07T09:26:21;436.90;;;33.50;;
57463;SDS011;43309;44.418;26.122;2023-09-07T09:28:50;601.70;;;48.40;;
57463;SDS011;43309;44.418;26.122;2023-09-07T09:31:20;688.70;;;47.60;;
57463;SDS011;43309;44.418;26.122;2023-09-07T09:33:48;894.00;;;66.50;;
57463;SDS011;43309;44.418;26.122;2023-09-07T09:36:18;758.40;;;64.20;;
57463;SDS011;43309;44.418;26.122;2023-09-07T09:38:49;753.90;;;64.60;;
57463;SDS011;43309;44.418;26.122;2023-09-07T09:41:20;661.90;;;65.70;;
57463;SDS011;43309;44.418;26.122;2023-09-07T09:43:47;650.00;;;64.40;;
57463;SDS011;43309;44.418;26.122;2023-09-07T09:46:18;594.60;;;62.50;;
57463;SDS011;43309;44.418;26.122;2023-09-07T09:48:45;542.00;;;59.00;;
57463;SDS011;43309;44.418;26.122;2023-09-07T09:51:14;551.10;;;59.80;;
57463;SDS011;43309;44.418;26.122;2023-09-07T09:53:44;476.50;;;56.00;;
57463;SDS011;43309;44.418;26.122;2023-09-07T09:56:12;548.00;;;60.60;;
57463;SDS011;43309;44.418;26.122;2023-09-07T09:58:39;578.60;;;59.90;;
57463;SDS011;43309;44.418;26.122;2023-09-07T10:01:07;559.20;;;58.50;;
57463;SDS011;43309;44.418;26.122;2023-09-07T10:03:36;571.30;;;56.40;;
57463;SDS011;43309;44.418;26.122;2023-09-07T10:06:33;611.50;;;62.70;;
57463;SDS011;43309;44.418;26.122;2023-09-07T10:09:06;597.00;;;63.70;;
57463;SDS011;43309;44.418;26.122;2023-09-07T10:11:35;593.90;;;72.60;;
57463;SDS011;43309;44.418;26.122;2023-09-07T10:14:05;581.90;;;78.20;;
57463;SDS011;43309;44.418;26.122;2023-09-07T10:16:45;581.70;;;72.80;;
57463;SDS011;43309;44.418;26.122;2023-09-07T10:19:17;551.20;;;69.00;;
57463;SDS011;43309;44.418;26.122;2023-09-07T10:24:22;458.00;;;57.60;;
57463;SDS011;43309;44.418;26.122;2023-09-07T10:27:01;484.40;;;58.20;;
57463;SDS011;43309;44.418;26.122;2023-09-07T10:29:40;369.70;;;49.30;;
57463;SDS011;43309;44.418;26.122;2023-09-07T10:32:09;339.30;;;42.70;;
57463;SDS011;43309;44.418;26.122;2023-09-07T10:34:39;337.20;;;43.60;;
57463;SDS011;43309;44.418;26.122;2023-09-07T10:37:13;298.00;;;38.40;;
57463;SDS011;43309;44.418;26.122;2023-09-07T10:39:42;275.60;;;34.70;;
57463;SDS011;43309;44.418;26.122;2023-09-07T10:42:20;242.00;;;34.00;;
57463;SDS011;43309;44.418;26.122;2023-09-07T10:44:49;227.50;;;30.10;;
57463;SDS011;43309;44.418;26.122;2023-09-07T10:47:16;240.10;;;29.20;;
57463;SDS011;43309;44.418;26.122;2023-09-07T10:49:44;232.20;;;30.60;;
57463;SDS011;43309;44.418;26.122;2023-09-07T10:52:11;159.40;;;31.50;;
57463;SDS011;43309;44.418;26.122;2023-09-07T10:54:38;209.50;;;33.70;;
57463;SDS011;43309;44.418;26.122;2023-09-07T10:57:09;197.40;;;39.90;;
57463;SDS011;43309;44.418;26.122;2023-09-07T10:59:37;164.80;;;38.70;;
57463;SDS011;43309;44.418;26.122;2023-09-07T11:02:05;177.70;;;38.80;;
57463;SDS011;43309;44.418;26.122;2023-09-07T11:04:33;172.50;;;40.70;;
57463;SDS011;43309;44.418;26.122;2023-09-07T11:07:01;157.60;;;41.80;;
57463;SDS011;43309;44.418;26.122;2023-09-07T11:09:32;146.50;;;42.70;;
57463;SDS011;43309;44.418;26.122;2023-09-07T11:12:05;140.60;;;41.30;;
57463;SDS011;43309;44.418;26.122;2023-09-07T11:14:33;154.60;;;38.90;;
57463;SDS011;43309;44.418;26.122;2023-09-07T11:17:00;125.10;;;36.20;;
57463;SDS011;43309;44.418;26.122;2023-09-07T11:19:33;133.80;;;39.00;;
57463;SDS011;43309;44.418;26.122;2023-09-07T11:22:01;138.20;;;39.10;;
57463;SDS011;43309;44.418;26.122;2023-09-07T11:24:31;127.70;;;42.60;;
57463;SDS011;43309;44.418;26.122;2023-09-07T11:26:59;145.40;;;42.80;;
57463;SDS011;43309;44.418;26.122;2023-09-07T11:29:27;163.00;;;45.10;;
57463;SDS011;43309;44.418;26.122;2023-09-07T11:32:04;160.20;;;44.80;;
57463;SDS011;43309;44.418;26.122;2023-09-07T11:34:32;158.20;;;43.10;;
57463;SDS011;43309;44.418;26.122;2023-09-07T11:37:01;164.30;;;40.80;;
57463;SDS011;43309;44.418;26.122;2023-09-07T11:39:29;189.90;;;41.40;;
57463;SDS011;43309;44.418;26.122;2023-09-07T11:41:57;306.70;;;42.40;;
57463;SDS011;43309;44.418;26.122;2023-09-07T11:44:24;332.10;;;48.70;;
57463;SDS011;43309;44.418;26.122;2023-09-07T11:46:51;542.90;;;69.10;;
57463;SDS011;43309;44.418;26.122;2023-09-07T11:49:19;560.30;;;73.80;;
57463;SDS011;43309;44.418;26.122;2023-09-07T11:51:48;641.90;;;89.50;;
57463;SDS011;43309;44.418;26.122;2023-09-07T11:54:16;617.10;;;82.20;;
57463;SDS011;43309;44.418;26.122;2023-09-07T11:56:43;681.80;;;88.00;;
57463;SDS011;43309;44.418;26.122;2023-09-07T11:59:12;700.40;;;89.80;;
57463;SDS011;43309;44.418;26.122;2023-09-07T12:01:39;718.80;;;92.00;;
57463;SDS011;43309;44.418;26.122;2023-09-07T12:04:06;680.70;;;95.50;;
57463;SDS011;43309;44.418;26.122;2023-09-07T12:06:34;635.40;;;87.40;;
57463;SDS011;43309;44.418;26.122;2023-09-07T12:09:05;645.10;;;99.70;;
57463;SDS011;43309;44.418;26.122;2023-09-07T12:11:39;605.80;;;103.70;;
57463;SDS011;43309;44.418;26.122;2023-09-07T12:14:06;628.20;;;102.90;;
57463;SDS011;43309;44.418;26.122;2023-09-07T12:16:33;635.00;;;95.00;;
57463;SDS011;43309;44.418;26.122;2023-09-07T12:19:00;785.10;;;101.00;;
57463;SDS011;43309;44.418;26.122;2023-09-07T12:21:27;1045.00;;;143.30;;
57463;SDS011;43309;44.418;26.122;2023-09-07T12:23:55;1120.70;;;166.10;;
57463;SDS011;43309;44.418;26.122;2023-09-07T12:26:22;1267.20;;;181.60;;
57463;SDS011;43309;44.418;26.122;2023-09-07T12:28:49;1288.90;;;180.80;;
57463;SDS011;43309;44.418;26.122;2023-09-07T12:31:16;1227.50;;;175.00;;
57463;SDS011;43309;44.418;26.122;2023-09-07T12:33:44;1276.10;;;180.00;;
57463;SDS011;43309;44.418;26.122;2023-09-07T12:36:11;1259.90;;;178.10;;
57463;SDS011;43309;44.418;26.122;2023-09-07T12:38:38;1332.70;;;185.00;;
57463;SDS011;43309;44.418;26.122;2023-09-07T12:41:06;1353.60;;;190.00;;
57463;SDS011;43309;44.418;26.122;2023-09-07T12:43:33;1262.30;;;178.00;;
57463;SDS011;43309;44.418;26.122;2023-09-07T12:46:00;1261.90;;;175.40;;
57463;SDS011;43309;44.418;26.122;2023-09-07T12:48:27;1227.30;;;174.90;;
57463;SDS011;43309;44.418;26.122;2023-09-07T12:50:55;1021.10;;;141.50;;
57463;SDS011;43309;44.418;26.122;2023-09-07T12:53:22;996.50;;;131.30;;
57463;SDS011;43309;44.418;26.122;2023-09-07T12:55:53;1008.20;;;138.70;;
57463;SDS011;43309;44.418;26.122;2023-09-07T12:58:20;852.10;;;135.40;;
57463;SDS011;43309;44.418;26.122;2023-09-07T13:00:47;809.70;;;140.30;;
57463;SDS011;43309;44.418;26.122;2023-09-07T13:03:15;697.60;;;130.00;;
57463;SDS011;43309;44.418;26.122;2023-09-07T13:05:43;692.10;;;119.80;;
57463;SDS011;43309;44.418;26.122;2023-09-07T13:08:10;610.10;;;98.10;;
57463;SDS011;43309;44.418;26.122;2023-09-07T13:10:37;629.00;;;105.30;;
57463;SDS011;43309;44.418;26.122;2023-09-07T13:13:06;584.00;;;94.10;;
57463;SDS011;43309;44.418;26.122;2023-09-07T13:15:34;570.40;;;86.90;;
57463;SDS011;43309;44.418;26.122;2023-09-07T13:18:01;527.40;;;71.60;;
57463;SDS011;43309;44.418;26.122;2023-09-07T13:20:28;519.70;;;72.10;;
57463;SDS011;43309;44.418;26.122;2023-09-07T13:22:56;511.80;;;68.80;;
57463;SDS011;43309;44.418;26.122;2023-09-07T13:25:23;437.70;;;63.40;;
57463;SDS011;43309;44.418;26.122;2023-09-07T13:27:50;466.00;;;66.00;;
57463;SDS011;43309;44.418;26.122;2023-09-07T13:30:18;452.00;;;63.60;;
57463;SDS011;43309;44.418;26.122;2023-09-07T13:32:45;438.70;;;55.30;;
57463;SDS011;43309;44.418;26.122;2023-09-07T13:35:14;394.80;;;54.80;;
57463;SDS011;43309;44.418;26.122;2023-09-07T13:37:42;400.60;;;54.90;;
57463;SDS011;43309;44.418;26.122;2023-09-07T13:40:09;391.30;;;56.40;;
57463;SDS011;43309;44.418;26.122;2023-09-07T13:42:37;426.10;;;54.50;;
57463;SDS011;43309;44.418;26.122;2023-09-07T13:45:06;430.80;;;74.10;;
57463;SDS011;43309;44.418;26.122;2023-09-07T13:47:34;379.50;;;77.20;;
57463;SDS011;43309;44.418;26.122;2023-09-07T13:50:01;367.10;;;72.60;;
57463;SDS011;43309;44.418;26.122;2023-09-07T13:52:28;367.60;;;68.40;;
57463;SDS011;43309;44.418;26.122;2023-09-07T13:54:55;333.20;;;65.80;;
57463;SDS011;43309;44.418;26.122;2023-09-07T13:57:23;291.60;;;61.70;;
57463;SDS011;43309;44.418;26.122;2023-09-07T13:59:50;312.60;;;64.30;;
57463;SDS011;43309;44.418;26.122;2023-09-07T14:02:17;276.80;;;62.90;;
57463;SDS011;43309;44.418;26.122;2023-09-07T14:04:44;289.60;;;71.20;;
57463;SDS011;43309;44.418;26.122;2023-09-07T14:07:12;288.40;;;78.80;;
57463;SDS011;43309;44.418;26.122;2023-09-07T14:09:39;276.40;;;85.20;;
57463;SDS011;43309;44.418;26.122;2023-09-07T14:12:07;318.80;;;82.50;;
57463;SDS011;43309;44.418;26.122;2023-09-07T14:14:34;282.20;;;88.00;;
57463;SDS011;43309;44.418;26.122;2023-09-07T14:17:02;274.30;;;81.60;;
57463;SDS011;43309;44.418;26.122;2023-09-07T14:19:29;268.20;;;80.60;;